createdAt,value
2023-06-30T00:01:33.657Z,82.41
2023-06-30T00:04:55.737Z,82.36
2023-06-30T00:08:17.760Z,82.45
2023-06-30T00:11:41.150Z,82.78
2023-06-30T00:15:03.550Z,82.59
2023-06-30T00:18:27.000Z,83.00
2023-06-30T00:21:49.344Z,82.49
2023-06-30T00:25:13.596Z,82.35
2023-06-30T00:28:38.080Z,81.81
2023-06-30T00:31:59.782Z,82.56
2023-06-30T00:35:24.050Z,82.21
2023-06-30T00:38:46.748Z,82.25
2023-06-30T00:42:10.529Z,83.12
2023-06-30T00:45:32.377Z,83.28
2023-06-30T00:48:54.177Z,82.99
2023-06-30T00:52:17.085Z,83.08
2023-06-30T00:55:38.542Z,82.76
2023-06-30T00:59:01.398Z,80.65
2023-06-30T01:02:30.040Z,81.77
2023-06-30T01:06:00.312Z,80.97
2023-06-30T01:09:26.042Z,81.02
2023-06-30T01:12:48.837Z,80.29
2023-06-30T01:16:11.919Z,81.12
2023-06-30T01:19:37.803Z,80.92
2023-06-30T01:23:06.998Z,80.30
2023-06-30T01:26:31.966Z,79.79
2023-06-30T01:29:56.003Z,80.57
2023-06-30T01:33:17.869Z,79.89
2023-06-30T01:36:39.599Z,79.43
2023-06-30T01:40:04.012Z,78.62
2023-06-30T01:43:28.282Z,79.40
2023-06-30T01:46:50.064Z,79.24
2023-06-30T01:50:12.751Z,78.99
2023-06-30T01:53:34.190Z,79.06
2023-06-30T01:56:55.787Z,79.68
2023-06-30T02:00:19.230Z,79.67
2023-06-30T02:03:42.724Z,80.20
2023-06-30T02:07:05.180Z,80.77
2023-06-30T02:10:27.319Z,81.87
2023-06-30T02:13:50.316Z,82.80
2023-06-30T02:17:16.059Z,83.41
2023-06-30T02:20:40.029Z,83.70
2023-06-30T02:24:01.464Z,84.09
2023-06-30T02:27:23.262Z,84.46
2023-06-30T02:30:45.387Z,85.34
2023-06-30T02:34:08.323Z,85.81
2023-06-30T02:37:30.557Z,85.85
2023-06-30T02:40:52.295Z,85.94
2023-06-30T02:44:14.408Z,86.58
2023-06-30T02:47:36.424Z,87.01
2023-06-30T02:51:00.159Z,86.74
2023-06-30T02:54:22.049Z,87.64
2023-06-30T02:57:44.073Z,87.79
2023-06-30T03:01:07.217Z,88.07
2023-06-30T03:04:31.155Z,89.48
2023-06-30T03:07:55.181Z,89.00
2023-06-30T03:11:17.014Z,89.30
2023-06-30T03:14:38.926Z,88.72
2023-06-30T03:18:00.385Z,89.44
2023-06-30T03:21:22.408Z,89.98
2023-06-30T03:24:46.289Z,90.39
2023-06-30T03:28:08.533Z,90.59
2023-06-30T03:31:30.495Z,91.14
2023-06-30T03:34:52.407Z,91.64
2023-06-30T03:38:13.982Z,90.96
2023-06-30T03:41:37.296Z,91.16
2023-06-30T03:44:59.875Z,91.64
2023-06-30T03:48:22.713Z,91.72
2023-06-30T03:51:44.456Z,91.87
2023-06-30T03:55:07.488Z,92.58
2023-06-30T03:58:32.372Z,92.99
2023-06-30T04:01:54.575Z,92.71
2023-06-30T04:05:16.120Z,92.87
2023-06-30T04:08:37.883Z,93.45
2023-06-30T04:11:59.332Z,93.06
2023-06-30T04:15:22.417Z,93.47
2023-06-30T04:18:43.973Z,92.71
2023-06-30T04:22:06.016Z,93.43
2023-06-30T04:25:27.634Z,93.41
2023-06-30T04:28:49.602Z,93.89
2023-06-30T04:32:12.999Z,94.01
2023-06-30T04:35:34.856Z,93.74
2023-06-30T04:38:57.169Z,93.63
2023-06-30T04:42:19.387Z,92.25
2023-06-30T04:45:41.412Z,92.21
2023-06-30T04:49:05.683Z,92.00
2023-06-30T04:52:27.440Z,93.35
2023-06-30T04:55:50.560Z,93.96
2023-06-30T04:59:12.350Z,92.65
2023-06-30T05:02:33.925Z,91.78
2023-06-30T05:05:57.814Z,91.27
2023-06-30T05:09:19.624Z,91.02
2023-06-30T05:12:41.205Z,90.21
2023-06-30T05:16:03.055Z,90.93
2023-06-30T05:19:24.962Z,90.93
2023-06-30T05:23:18.755Z,91.35
2023-06-30T05:26:43.768Z,90.23
2023-06-30T05:30:06.224Z,90.01
2023-06-30T05:33:27.517Z,90.63
2023-06-30T05:36:49.317Z,90.15
2023-06-30T05:40:14.299Z,89.74
2023-06-30T05:43:35.888Z,88.63
2023-06-30T05:46:57.833Z,88.31
2023-06-30T05:50:19.792Z,88.87
2023-06-30T05:53:44.777Z,89.08
2023-06-30T05:57:10.546Z,88.33
2023-06-30T06:00:34.936Z,86.97
2023-06-30T06:03:56.907Z,86.51
2023-06-30T06:07:19.499Z,85.47
2023-06-30T06:10:41.143Z,85.29
2023-06-30T06:14:04.694Z,85.58
2023-06-30T06:17:26.298Z,84.85
2023-06-30T06:20:48.277Z,85.86
2023-06-30T06:24:10.162Z,85.68
2023-06-30T06:27:35.684Z,84.19
2023-06-30T06:30:58.928Z,84.26
2023-06-30T06:34:21.036Z,83.60
2023-06-30T06:37:43.139Z,84.45
2023-06-30T06:41:04.996Z,82.34
2023-06-30T06:44:26.876Z,81.83
2023-06-30T06:48:23.216Z,81.73
2023-06-30T06:51:44.911Z,82.50
2023-06-30T06:55:07.340Z,78.70
2023-06-30T06:58:32.237Z,75.84
2023-06-30T07:01:53.683Z,75.67
2023-06-30T07:05:16.968Z,76.49
2023-06-30T07:08:40.283Z,75.15
2023-06-30T07:12:02.267Z,74.79
2023-06-30T07:15:25.179Z,74.88
2023-06-30T07:18:46.676Z,74.65
2023-06-30T07:22:09.782Z,74.64
2023-06-30T07:25:31.441Z,73.93
2023-06-30T07:28:52.933Z,74.39
2023-06-30T07:32:16.515Z,73.63
2023-06-30T07:35:37.928Z,74.11
2023-06-30T07:39:01.306Z,72.80
2023-06-30T07:42:23.253Z,72.88
2023-06-30T07:45:45.248Z,74.27
2023-06-30T07:49:07.514Z,74.67
2023-06-30T07:52:29.260Z,72.43
2023-06-30T07:55:52.121Z,72.32
2023-06-30T07:59:14.022Z,72.21
2023-06-30T08:02:36.048Z,72.70
2023-06-30T08:05:59.446Z,71.99
2023-06-30T08:09:21.669Z,73.34
2023-06-30T08:12:45.002Z,72.32
2023-06-30T08:16:06.727Z,72.42
2023-06-30T08:19:45.738Z,72.31
2023-06-30T08:23:14.310Z,73.36
2023-06-30T08:26:36.036Z,73.47
2023-06-30T08:29:59.140Z,73.71
2023-06-30T08:33:35.117Z,74.02
2023-06-30T08:37:01.838Z,74.86
2023-06-30T08:40:28.014Z,74.14
2023-06-30T08:43:50.685Z,74.96
2023-06-30T08:47:16.781Z,74.34
2023-06-30T08:50:39.766Z,74.53
2023-06-30T08:54:01.659Z,74.28
2023-06-30T08:57:26.218Z,74.35
2023-06-30T09:00:47.704Z,73.40
2023-06-30T09:04:12.169Z,72.54
2023-06-30T09:07:41.899Z,73.19
2023-06-30T09:11:08.417Z,73.08
2023-06-30T09:14:34.674Z,72.30
2023-06-30T09:17:58.511Z,72.04
2023-06-30T09:21:24.264Z,72.18
2023-06-30T09:24:49.843Z,71.92
2023-06-30T09:28:14.838Z,71.44
2023-06-30T09:31:36.823Z,71.65
2023-06-30T09:34:58.440Z,69.68
2023-06-30T09:38:22.366Z,70.61
2023-06-30T09:41:45.332Z,70.37
2023-06-30T09:45:08.415Z,69.31
2023-06-30T09:48:32.339Z,69.54
2023-06-30T09:51:56.837Z,69.35
2023-06-30T09:55:20.271Z,69.36
2023-06-30T09:58:44.158Z,69.41
2023-06-30T10:02:05.913Z,68.81
2023-06-30T10:05:27.740Z,69.30
2023-06-30T10:08:51.505Z,70.34
2023-06-30T10:12:16.989Z,70.21
2023-06-30T10:15:39.476Z,70.33
2023-06-30T10:19:04.314Z,70.49
2023-06-30T10:22:26.336Z,69.72
2023-06-30T10:25:49.499Z,69.90
2023-06-30T10:29:13.056Z,69.31
2023-06-30T10:32:35.142Z,70.49
2023-06-30T10:35:58.933Z,76.31
2023-06-30T10:39:26.419Z,78.68
2023-06-30T10:42:49.796Z,79.71
2023-06-30T10:46:13.357Z,81.78
2023-06-30T10:49:36.284Z,83.09
2023-06-30T10:52:57.935Z,84.60
2023-06-30T10:56:24.539Z,86.89
2023-06-30T10:59:48.388Z,85.95
2023-06-30T11:03:11.172Z,83.48
2023-06-30T11:06:33.064Z,84.41
2023-06-30T11:10:04.454Z,85.67
2023-06-30T11:13:38.687Z,86.95
2023-06-30T11:17:06.728Z,87.15
2023-06-30T11:20:31.239Z,87.54
2023-06-30T11:23:52.861Z,87.10
2023-06-30T11:27:15.346Z,88.54
2023-06-30T11:30:39.900Z,90.23
2023-06-30T11:34:02.373Z,89.92
2023-06-30T11:37:27.784Z,89.87
2023-06-30T11:40:51.250Z,89.43
2023-06-30T11:44:14.482Z,89.34
2023-06-30T11:47:37.109Z,90.53
2023-06-30T11:50:59.754Z,90.48
2023-06-30T11:54:31.314Z,87.51
2023-06-30T11:57:52.826Z,86.59
2023-06-30T12:01:14.548Z,86.35
2023-06-30T12:04:37.689Z,86.60
2023-06-30T12:07:59.907Z,86.38
2023-06-30T12:11:24.622Z,88.60
2023-06-30T12:14:47.315Z,88.88
2023-06-30T12:18:09.016Z,87.26
2023-06-30T12:21:30.825Z,86.12
2023-06-30T12:24:56.431Z,86.58
2023-06-30T12:28:19.855Z,87.45
2023-06-30T12:31:42.696Z,87.18
2023-06-30T12:35:07.747Z,87.25
2023-06-30T12:38:29.484Z,86.27
2023-06-30T12:41:51.657Z,86.71
2023-06-30T12:45:14.993Z,86.84
2023-06-30T12:48:36.954Z,87.40
2023-06-30T12:52:00.472Z,88.27
2023-06-30T12:55:24.909Z,89.22
2023-06-30T12:58:47.216Z,87.42
2023-06-30T13:02:11.167Z,85.50
2023-06-30T13:05:33.365Z,86.92
2023-06-30T13:08:55.434Z,87.07
2023-06-30T13:12:25.637Z,87.20
2023-06-30T13:15:48.604Z,85.90
2023-06-30T13:19:14.129Z,87.39
2023-06-30T13:22:38.033Z,87.33
2023-06-30T13:26:04.371Z,86.71
2023-06-30T13:29:26.748Z,88.01
2023-06-30T13:32:48.871Z,86.38
2023-06-30T13:36:13.972Z,86.84
2023-06-30T13:39:37.860Z,87.46
2023-06-30T13:43:00.014Z,86.26
2023-06-30T13:46:24.521Z,87.66
2023-06-30T13:49:46.365Z,87.14
2023-06-30T13:53:09.534Z,85.04
2023-06-30T13:56:31.710Z,85.75
2023-06-30T13:59:53.804Z,85.42
2023-06-30T14:03:17.141Z,86.02
2023-06-30T14:06:39.468Z,85.93
2023-06-30T14:10:02.991Z,87.20
2023-06-30T14:13:25.388Z,85.66
2023-06-30T14:16:50.665Z,86.60
2023-06-30T14:20:14.805Z,86.21
2023-06-30T14:23:36.690Z,86.42
2023-06-30T14:26:59.655Z,85.20
2023-06-30T14:30:21.716Z,85.32
2023-06-30T14:33:43.456Z,86.38
2023-06-30T14:37:05.653Z,84.66
2023-06-30T14:40:31.093Z,85.16
2023-06-30T14:43:54.607Z,85.14
2023-06-30T14:47:16.827Z,85.07
2023-06-30T14:50:38.530Z,85.88
2023-06-30T14:54:00.563Z,85.47
2023-06-30T14:57:22.520Z,83.89
2023-06-30T15:00:45.565Z,82.25
2023-06-30T15:04:07.971Z,80.38
2023-06-30T15:07:29.617Z,80.04
2023-06-30T15:10:51.626Z,80.18
2023-06-30T15:14:13.126Z,79.06
2023-06-30T15:17:35.780Z,79.82
2023-06-30T15:20:57.725Z,79.58
2023-06-30T15:24:19.858Z,79.97
2023-06-30T15:27:41.482Z,79.63
2023-06-30T15:31:03.360Z,79.90
2023-06-30T15:34:27.069Z,79.82
2023-06-30T15:37:49.033Z,79.89
2023-06-30T15:41:22.286Z,79.82
2023-06-30T15:44:44.745Z,79.64
2023-06-30T15:48:07.114Z,79.08
2023-06-30T15:51:30.387Z,79.05
2023-06-30T15:55:08.937Z,78.69
2023-06-30T15:58:30.655Z,78.71
2023-06-30T16:01:52.541Z,79.30
2023-06-30T16:05:14.288Z,78.72
2023-06-30T16:08:37.542Z,78.76
2023-06-30T16:11:59.911Z,78.38
2023-06-30T16:15:21.850Z,78.76
2023-06-30T16:18:43.774Z,78.90
2023-06-30T16:22:05.870Z,78.54
2023-06-30T16:25:29.008Z,77.74
2023-06-30T16:28:50.799Z,76.74
2023-06-30T16:32:12.695Z,76.17
2023-06-30T16:35:35.643Z,76.84
2023-06-30T16:38:57.206Z,72.32
2023-06-30T16:42:20.635Z,69.96
2023-06-30T16:45:42.746Z,70.66
2023-06-30T16:49:04.664Z,69.76
2023-06-30T16:52:26.610Z,69.62
2023-06-30T16:55:48.739Z,70.50
2023-06-30T16:59:12.079Z,70.33
2023-06-30T17:02:34.392Z,69.28
2023-06-30T17:05:56.031Z,68.95
2023-06-30T17:09:20.433Z,68.78
2023-06-30T17:12:43.468Z,68.49
2023-06-30T17:16:06.758Z,69.03
2023-06-30T17:19:28.708Z,69.14
2023-06-30T17:22:50.121Z,69.54
2023-06-30T17:26:12.144Z,69.27
2023-06-30T17:29:33.922Z,69.54
2023-06-30T17:32:56.881Z,69.29
2023-06-30T17:36:19.599Z,69.26
2023-06-30T17:39:41.181Z,69.11
2023-06-30T17:43:02.692Z,69.16
2023-06-30T17:46:24.395Z,69.23
2023-06-30T17:49:48.331Z,70.02
2023-06-30T17:53:11.105Z,69.75
2023-06-30T17:56:32.922Z,69.72
2023-06-30T17:59:54.573Z,70.36
2023-06-30T18:03:17.087Z,69.41
2023-06-30T18:07:02.504Z,69.64
2023-06-30T18:10:24.374Z,70.02
2023-06-30T18:13:47.533Z,69.89
2023-06-30T18:17:08.946Z,69.33
2023-06-30T18:20:30.858Z,70.33
2023-06-30T18:23:53.552Z,70.25
2023-06-30T18:27:15.274Z,70.20
2023-06-30T18:30:37.083Z,72.24
2023-06-30T18:33:58.441Z,72.16
2023-06-30T18:37:20.385Z,69.34
2023-06-30T18:40:43.427Z,68.95
2023-06-30T18:44:05.617Z,69.69
2023-06-30T18:47:27.230Z,69.96
2023-06-30T18:50:48.958Z,71.03
2023-06-30T18:54:10.684Z,69.60
2023-06-30T18:57:34.591Z,70.46
2023-06-30T19:00:56.342Z,68.96
2023-06-30T19:04:18.174Z,68.45
2023-06-30T19:07:39.913Z,68.71
2023-06-30T19:11:01.672Z,70.93
2023-06-30T19:14:25.773Z,73.54
2023-06-30T19:17:47.397Z,73.25
2023-06-30T19:21:10.207Z,71.42
2023-06-30T19:24:33.001Z,71.17
2023-06-30T19:27:54.625Z,70.86
2023-06-30T19:31:18.129Z,71.09
2023-06-30T19:34:39.678Z,74.16
2023-06-30T19:38:01.093Z,75.66
2023-06-30T19:41:24.644Z,75.96
2023-06-30T19:44:47.425Z,76.19
2023-06-30T19:48:10.579Z,75.84
2023-06-30T19:51:31.959Z,76.42
2023-06-30T19:54:53.663Z,77.18
2023-06-30T19:58:15.556Z,78.16
2023-06-30T20:01:37.597Z,77.95
2023-06-30T20:05:02.579Z,78.79
2023-06-30T20:08:24.362Z,79.18
2023-06-30T20:11:46.046Z,79.08
2023-06-30T20:15:09.688Z,78.94
2023-06-30T20:18:31.487Z,79.83
2023-06-30T20:21:54.572Z,80.37
2023-06-30T20:25:16.166Z,80.79
2023-06-30T20:28:39.656Z,81.18
2023-06-30T20:32:01.650Z,81.17
2023-06-30T20:35:23.405Z,81.08
2023-06-30T20:38:46.766Z,81.43
2023-06-30T20:42:09.096Z,81.66
2023-06-30T20:45:31.779Z,81.78
2023-06-30T20:48:54.035Z,81.98
2023-06-30T20:52:15.551Z,82.16
2023-06-30T20:55:38.667Z,82.80
2023-06-30T20:59:00.429Z,82.89
2023-06-30T21:02:22.012Z,83.51
2023-06-30T21:05:43.311Z,83.34
2023-06-30T21:09:06.288Z,83.17
2023-06-30T21:12:29.042Z,83.67
2023-06-30T21:15:50.497Z,83.85
2023-06-30T21:19:12.976Z,84.37
2023-06-30T21:22:34.525Z,84.49
2023-06-30T21:25:56.543Z,85.37
2023-06-30T21:29:19.769Z,85.67
2023-06-30T21:32:41.839Z,86.32
2023-06-30T21:36:03.605Z,86.54
2023-06-30T21:39:25.044Z,86.47
2023-06-30T21:42:46.973Z,86.95
2023-06-30T21:46:15.227Z,87.15
2023-06-30T21:49:37.799Z,87.30
2023-06-30T21:52:59.297Z,87.71
2023-06-30T21:56:21.632Z,88.07
2023-06-30T21:59:43.079Z,88.22
2023-06-30T22:03:07.274Z,88.25
2023-06-30T22:06:29.346Z,88.38
2023-06-30T22:09:51.285Z,88.43
2023-06-30T22:13:13.152Z,88.59
2023-06-30T22:16:34.481Z,89.01
2023-06-30T22:19:57.713Z,89.09
2023-06-30T22:23:19.218Z,88.95
2023-06-30T22:26:41.099Z,89.02
2023-06-30T22:30:02.986Z,88.92
2023-06-30T22:33:24.584Z,88.82
2023-06-30T22:36:47.613Z,88.54
2023-06-30T22:40:10.758Z,88.48
2023-06-30T22:43:32.274Z,88.76
2023-06-30T22:46:53.544Z,88.79
2023-06-30T22:50:15.760Z,89.03
2023-06-30T22:53:38.518Z,89.21
2023-06-30T22:57:00.275Z,89.26
2023-06-30T23:00:22.768Z,89.24
2023-06-30T23:03:44.404Z,89.82
2023-06-30T23:07:06.325Z,90.17
2023-06-30T23:10:29.105Z,90.18
2023-06-30T23:13:50.911Z,90.26
2023-06-30T23:17:16.070Z,90.18
2023-06-30T23:20:37.438Z,90.36
2023-06-30T23:23:59.322Z,90.48
2023-06-30T23:27:24.506Z,90.62
2023-06-30T23:30:46.159Z,90.49
2023-06-30T23:34:08.027Z,90.52
2023-06-30T23:37:29.898Z,90.42
2023-06-30T23:40:51.203Z,90.44
2023-06-30T23:44:14.777Z,90.49
2023-06-30T23:47:36.359Z,90.77
2023-06-30T23:50:58.225Z,90.47
2023-06-30T23:54:19.898Z,90.86
2023-06-30T23:57:41.803Z,90.70
